createdAt,value
2019-02-22T00:00:32.910Z,99.90
2019-02-22T00:03:02.041Z,99.90
2019-02-22T00:05:31.151Z,99.90
2019-02-22T00:08:00.154Z,99.90
2019-02-22T00:10:29.130Z,99.90
2019-02-22T00:12:58.445Z,99.90
2019-02-22T00:15:28.106Z,99.90
2019-02-22T00:17:57.128Z,99.90
2019-02-22T00:20:26.234Z,99.90
2019-02-22T00:22:55.174Z,99.90
2019-02-22T00:25:24.046Z,99.90
2019-02-22T00:27:53.016Z,99.90
2019-02-22T00:30:22.008Z,99.90
2019-02-22T00:32:51.363Z,99.90
2019-02-22T00:35:20.812Z,99.90
2019-02-22T00:37:50.347Z,99.90
2019-02-22T00:40:19.739Z,99.90
2019-02-22T00:42:50.318Z,99.90
2019-02-22T00:47:56.468Z,99.90
2019-02-22T00:50:25.659Z,99.90
2019-02-22T00:52:54.766Z,99.90
2019-02-22T00:55:23.920Z,99.90
2019-02-22T00:57:53.249Z,99.90
2019-02-22T01:00:23.325Z,99.90
2019-02-22T01:02:53.062Z,99.90
2019-02-22T01:05:22.778Z,99.90
2019-02-22T01:07:52.006Z,99.90
2019-02-22T01:10:30.742Z,99.90
2019-02-22T01:12:53.072Z,99.90
2019-02-22T01:15:22.169Z,99.90
2019-02-22T01:17:51.545Z,99.90
2019-02-22T01:20:20.933Z,99.90
2019-02-22T01:22:51.053Z,99.90
2019-02-22T01:25:20.666Z,99.90
2019-02-22T01:27:49.823Z,99.90
2019-02-22T01:30:18.972Z,99.90
2019-02-22T01:32:48.019Z,99.90
2019-02-22T01:35:17.350Z,99.90
2019-02-22T01:37:46.598Z,99.90
2019-02-22T01:40:16.273Z,99.90
2019-02-22T01:42:45.720Z,99.90
2019-02-22T01:45:15.090Z,99.90
2019-02-22T01:47:44.285Z,99.90
2019-02-22T01:50:21.607Z,99.90
2019-02-22T01:52:51.289Z,99.90
2019-02-22T01:55:20.770Z,99.90
2019-02-22T01:57:50.361Z,99.90
2019-02-22T02:00:19.473Z,99.90
2019-02-22T02:02:49.084Z,99.90
2019-02-22T02:05:18.576Z,99.90
2019-02-22T02:07:47.605Z,99.90
2019-02-22T02:10:17.371Z,99.90
2019-02-22T02:12:46.512Z,99.90
2019-02-22T02:15:15.642Z,99.90
2019-02-22T02:17:45.457Z,99.90
2019-02-22T02:20:15.424Z,99.90
2019-02-22T02:22:45.199Z,99.90
2019-02-22T02:25:14.702Z,99.90
2019-02-22T02:27:43.871Z,99.90
2019-02-22T02:30:13.032Z,99.90
2019-02-22T02:32:42.145Z,99.90
2019-02-22T02:35:11.273Z,99.90
2019-02-22T02:37:40.561Z,99.90
2019-02-22T02:40:09.779Z,99.90
2019-02-22T02:42:39.571Z,99.90
2019-02-22T02:45:09.124Z,99.90
2019-02-22T02:47:38.542Z,99.90
2019-02-22T02:50:07.845Z,99.90
2019-02-22T02:52:37.468Z,99.90
2019-02-22T02:55:31.939Z,99.90
2019-02-22T02:58:01.522Z,99.90
2019-02-22T03:00:30.710Z,99.90
2019-02-22T03:02:59.917Z,99.90
2019-02-22T03:05:47.055Z,99.90
2019-02-22T03:08:16.378Z,99.90
2019-02-22T03:10:46.788Z,99.90
2019-02-22T03:13:16.357Z,99.90
2019-02-22T03:15:45.912Z,99.90
2019-02-22T03:18:15.261Z,99.90
2019-02-22T03:20:44.392Z,99.90
2019-02-22T03:23:13.697Z,99.90
2019-02-22T03:25:43.361Z,99.90
2019-02-22T03:28:12.499Z,99.90
2019-02-22T03:30:41.933Z,99.90
2019-02-22T03:33:11.501Z,99.90
2019-02-22T03:35:40.812Z,99.90
2019-02-22T03:38:09.898Z,99.90
2019-02-22T03:40:39.196Z,99.90
2019-02-22T03:43:08.272Z,99.90
2019-02-22T03:45:37.432Z,99.90
2019-02-22T03:48:07.110Z,99.90
2019-02-22T03:50:36.591Z,99.90
2019-02-22T03:53:33.857Z,99.90
2019-02-22T03:56:03.466Z,99.90
2019-02-22T03:58:33.393Z,99.90
2019-02-22T04:01:02.839Z,99.90
2019-02-22T04:03:32.266Z,99.90
2019-02-22T04:06:01.605Z,99.90
2019-02-22T04:08:31.327Z,99.90
2019-02-22T04:11:00.834Z,99.90
2019-02-22T04:13:30.215Z,99.90
2019-02-22T04:15:59.508Z,99.90
2019-02-22T04:18:28.795Z,99.90
2019-02-22T04:20:58.907Z,99.90
2019-02-22T04:23:28.547Z,99.90
2019-02-22T04:25:57.936Z,99.90
2019-02-22T04:28:27.249Z,99.90
2019-02-22T04:30:56.444Z,99.90
2019-02-22T04:33:26.077Z,99.90
2019-02-22T04:35:57.493Z,99.90
2019-02-22T04:38:27.123Z,99.90
2019-02-22T04:41:00.342Z,99.90
2019-02-22T04:43:32.735Z,99.90
2019-02-22T04:46:05.783Z,99.90
2019-02-22T04:48:35.867Z,99.90
2019-02-22T04:51:05.469Z,99.90
2019-02-22T04:53:34.463Z,99.90
2019-02-22T04:56:04.286Z,99.90
2019-02-22T04:58:34.798Z,99.90
2019-02-22T05:01:04.873Z,99.90
2019-02-22T05:03:37.597Z,99.90
2019-02-22T05:06:13.494Z,99.90
2019-02-22T05:08:44.493Z,99.90
2019-02-22T05:11:15.192Z,99.90
2019-02-22T05:13:45.449Z,99.90
2019-02-22T05:16:16.393Z,99.90
2019-02-22T05:18:50.515Z,99.90
2019-02-22T05:21:28.053Z,99.90
2019-02-22T05:24:04.045Z,99.90
2019-02-22T05:26:34.176Z,99.90
2019-02-22T05:29:07.489Z,99.90
2019-02-22T05:31:37.464Z,99.90
2019-02-22T05:34:07.790Z,99.90
2019-02-22T05:36:37.592Z,99.90
2019-02-22T05:39:18.644Z,99.90
2019-02-22T05:41:41.344Z,99.90
2019-02-22T05:44:13.125Z,99.90
2019-02-22T05:46:43.240Z,99.90
2019-02-22T05:49:14.343Z,99.90
2019-02-22T05:51:44.294Z,99.90
2019-02-22T05:54:14.282Z,99.90
2019-02-22T05:56:44.456Z,99.90
2019-02-22T05:59:14.174Z,99.90
2019-02-22T06:01:55.255Z,99.90
2019-02-22T06:04:24.980Z,99.90
2019-02-22T06:06:57.875Z,99.90
2019-02-22T06:09:27.606Z,99.90
2019-02-22T06:11:57.986Z,99.90
2019-02-22T06:14:27.903Z,99.90
2019-02-22T06:16:58.188Z,99.90
2019-02-22T06:19:32.020Z,99.90
2019-02-22T06:22:02.288Z,99.90
2019-02-22T06:24:32.878Z,99.90
2019-02-22T06:27:02.582Z,99.90
2019-02-22T06:29:32.748Z,99.90
2019-02-22T06:32:02.233Z,99.90
2019-02-22T06:34:31.934Z,99.90
2019-02-22T06:37:02.394Z,99.90
2019-02-22T06:39:32.058Z,99.90
2019-02-22T06:42:01.648Z,99.90
2019-02-22T06:44:31.634Z,99.90
2019-02-22T06:47:01.919Z,99.90
2019-02-22T06:49:33.202Z,99.90
2019-02-22T06:52:02.920Z,99.90
2019-02-22T06:54:35.459Z,99.90
2019-02-22T06:57:04.776Z,99.90
2019-02-22T06:59:34.171Z,99.90
2019-02-22T07:02:03.357Z,99.90
2019-02-22T07:04:39.403Z,99.90
2019-02-22T07:07:09.377Z,99.90
2019-02-22T07:09:47.221Z,99.90
2019-02-22T07:12:24.075Z,99.90
2019-02-22T07:14:54.345Z,99.90
2019-02-22T07:17:24.321Z,99.90
2019-02-22T07:19:55.959Z,99.90
2019-02-22T07:22:26.142Z,99.90
2019-02-22T07:24:55.872Z,99.90
2019-02-22T07:27:25.574Z,99.90
2019-02-22T07:30:02.763Z,99.90
2019-02-22T07:32:35.988Z,99.90
2019-02-22T07:35:06.278Z,99.90
2019-02-22T07:37:36.281Z,99.90
2019-02-22T07:40:06.318Z,99.90
2019-02-22T07:42:35.778Z,99.90
2019-02-22T07:45:10.747Z,99.90
2019-02-22T07:47:40.363Z,99.90
2019-02-22T07:50:12.157Z,99.90
2019-02-22T07:52:45.017Z,99.90
2019-02-22T07:55:13.644Z,99.90
2019-02-22T07:57:43.972Z,99.90
2019-02-22T08:00:17.028Z,99.90
2019-02-22T08:02:46.640Z,99.90
2019-02-22T08:05:16.439Z,99.90
2019-02-22T08:07:45.934Z,99.90
2019-02-22T08:10:15.878Z,99.90
2019-02-22T08:12:45.791Z,99.90
2019-02-22T08:15:15.741Z,99.90
2019-02-22T08:17:46.328Z,99.90
2019-02-22T08:20:16.002Z,99.90
2019-02-22T08:22:45.711Z,99.90
2019-02-22T08:25:15.327Z,99.90
2019-02-22T08:27:53.131Z,99.90
2019-02-22T08:30:17.253Z,99.90
2019-02-22T08:32:46.871Z,99.90
2019-02-22T08:35:17.005Z,99.90
2019-02-22T08:37:49.668Z,99.90
2019-02-22T08:40:19.451Z,99.90
2019-02-22T08:42:49.209Z,99.90
2019-02-22T08:45:19.094Z,99.90
2019-02-22T08:47:48.585Z,99.90
2019-02-22T08:50:18.957Z,99.90
2019-02-22T08:52:49.080Z,99.90
2019-02-22T08:55:18.514Z,99.90
2019-02-22T08:57:48.219Z,99.90
2019-02-22T09:00:19.298Z,99.90
2019-02-22T09:02:48.827Z,99.90
2019-02-22T09:05:18.152Z,99.90
2019-02-22T09:07:47.528Z,99.90
2019-02-22T09:10:17.527Z,99.90
2019-02-22T09:12:47.255Z,99.90
2019-02-22T09:15:16.943Z,99.90
2019-02-22T09:17:46.873Z,99.90
2019-02-22T09:20:16.338Z,99.90
2019-02-22T09:22:46.135Z,99.90
2019-02-22T09:25:15.932Z,99.90
2019-02-22T09:27:48.613Z,99.90
2019-02-22T09:30:18.737Z,99.90
2019-02-22T09:32:47.871Z,99.90
2019-02-22T09:35:17.384Z,99.90
2019-02-22T09:37:46.436Z,99.90
2019-02-22T09:40:15.910Z,99.90
2019-02-22T09:42:44.996Z,99.90
2019-02-22T09:45:14.072Z,99.90
2019-02-22T09:47:43.192Z,99.90
2019-02-22T09:50:12.673Z,99.90
2019-02-22T09:52:42.379Z,99.90
2019-02-22T09:55:12.392Z,99.90
2019-02-22T09:57:41.383Z,99.90
2019-02-22T10:00:12.340Z,99.90
2019-02-22T10:02:44.553Z,99.90
2019-02-22T10:05:13.089Z,99.90
2019-02-22T10:07:42.190Z,99.90
2019-02-22T10:10:11.644Z,99.90
2019-02-22T10:12:40.771Z,99.90
2019-02-22T10:15:11.354Z,99.90
2019-02-22T10:17:40.406Z,99.90
2019-02-22T10:20:09.488Z,99.90
2019-02-22T10:22:39.057Z,99.90
2019-02-22T10:25:08.297Z,99.90
2019-02-22T10:27:37.491Z,99.90
2019-02-22T10:30:06.963Z,99.90
2019-02-22T10:32:36.289Z,99.90
2019-02-22T10:35:05.841Z,99.90
2019-02-22T10:37:34.912Z,99.90
2019-02-22T10:40:04.129Z,99.90
2019-02-22T10:42:33.630Z,99.90
2019-02-22T10:45:02.836Z,99.90
2019-02-22T10:47:32.351Z,99.90
2019-02-22T10:50:01.760Z,99.90
2019-02-22T10:52:30.862Z,99.90
2019-02-22T10:55:00.400Z,99.90
2019-02-22T10:57:29.641Z,99.90
2019-02-22T10:59:59.037Z,99.90
2019-02-22T11:02:28.192Z,99.90
2019-02-22T11:04:57.535Z,99.90
2019-02-22T11:07:26.734Z,99.90
2019-02-22T11:09:55.747Z,99.90
2019-02-22T11:12:24.856Z,99.90
2019-02-22T11:14:53.833Z,99.90
2019-02-22T11:17:23.638Z,99.90
2019-02-22T11:19:52.663Z,99.90
2019-02-22T11:22:21.712Z,99.90
2019-02-22T11:24:50.759Z,99.90
2019-02-22T11:27:20.637Z,99.90
2019-02-22T11:29:49.640Z,99.90
2019-02-22T11:32:18.685Z,99.90
2019-02-22T11:34:48.167Z,99.90
2019-02-22T11:37:17.368Z,99.90
2019-02-22T11:39:46.862Z,99.20
2019-02-22T11:42:16.015Z,98.90
2019-02-22T11:44:45.183Z,99.00
2019-02-22T11:47:14.659Z,99.00
2019-02-22T11:49:44.034Z,99.00
2019-02-22T11:52:13.587Z,97.40
2019-02-22T11:54:43.611Z,97.10
2019-02-22T11:57:15.640Z,96.40
2019-02-22T11:59:45.443Z,96.10
2019-02-22T12:02:15.203Z,96.10
2019-02-22T12:04:44.909Z,95.70
2019-02-22T12:07:16.764Z,95.30
2019-02-22T12:09:46.280Z,95.60
2019-02-22T12:12:16.390Z,95.50
2019-02-22T12:14:51.555Z,95.50
2019-02-22T12:17:17.504Z,95.60
2019-02-22T12:19:47.115Z,95.80
2019-02-22T12:22:16.880Z,96.00
2019-02-22T12:24:47.284Z,95.90
2019-02-22T12:27:17.332Z,95.90
2019-02-22T12:29:47.373Z,96.10
2019-02-22T12:32:18.055Z,96.20
2019-02-22T12:34:48.463Z,96.40
2019-02-22T12:37:17.952Z,96.80
2019-02-22T12:39:48.068Z,96.60
2019-02-22T12:42:17.740Z,96.60
2019-02-22T12:44:47.648Z,96.80
2019-02-22T12:47:18.515Z,95.90
2019-02-22T12:49:48.710Z,95.10
2019-02-22T12:52:18.515Z,94.30
2019-02-22T12:54:49.084Z,94.10
2019-02-22T12:57:18.870Z,93.70
2019-02-22T12:59:49.022Z,92.10
2019-02-22T13:02:18.868Z,92.50
2019-02-22T13:04:49.075Z,91.60
2019-02-22T13:07:18.831Z,91.60
2019-02-22T13:09:48.700Z,92.70
2019-02-22T13:12:19.200Z,93.10
2019-02-22T13:14:49.271Z,93.10
2019-02-22T13:17:30.277Z,93.40
2019-02-22T13:19:51.720Z,93.40
2019-02-22T13:22:21.172Z,93.60
2019-02-22T13:24:51.568Z,93.70
2019-02-22T13:27:21.466Z,92.70
2019-02-22T13:29:50.922Z,92.40
2019-02-22T13:32:23.220Z,92.40
2019-02-22T13:34:56.288Z,92.00
2019-02-22T13:37:26.311Z,91.60
2019-02-22T13:39:56.896Z,91.30
2019-02-22T13:42:26.856Z,90.90
2019-02-22T13:44:57.364Z,90.80
2019-02-22T13:47:28.330Z,90.10
2019-02-22T13:49:57.991Z,89.00
2019-02-22T13:52:27.765Z,87.30
2019-02-22T13:54:58.187Z,86.00
2019-02-22T13:57:30.308Z,85.00
2019-02-22T13:59:59.549Z,85.20
2019-02-22T14:02:29.362Z,85.00
2019-02-22T14:04:59.322Z,84.60
2019-02-22T14:07:29.431Z,84.00
2019-02-22T14:09:58.984Z,83.70
2019-02-22T14:12:29.181Z,84.20
2019-02-22T14:14:58.769Z,84.80
2019-02-22T14:17:28.405Z,85.00
2019-02-22T14:19:58.067Z,85.10
2019-02-22T14:22:27.743Z,86.70
2019-02-22T14:24:57.221Z,87.10
2019-02-22T14:27:30.939Z,87.40
2019-02-22T14:30:00.435Z,88.00
2019-02-22T14:32:30.624Z,87.70
2019-02-22T14:35:00.492Z,88.20
2019-02-22T14:37:30.133Z,88.00
2019-02-22T14:40:03.383Z,88.40
2019-02-22T14:42:30.843Z,88.60
2019-02-22T14:45:01.498Z,88.00
2019-02-22T14:47:31.181Z,87.90
2019-02-22T14:50:00.359Z,87.60
2019-02-22T14:52:29.798Z,87.30
2019-02-22T14:54:59.439Z,87.40
2019-02-22T14:57:28.871Z,87.90
2019-02-22T14:59:58.542Z,88.10
2019-02-22T15:02:27.774Z,88.50
2019-02-22T15:04:57.357Z,89.00
2019-02-22T15:07:27.316Z,88.40
2019-02-22T15:09:58.976Z,87.90
2019-02-22T15:12:28.973Z,88.10
2019-02-22T15:14:58.582Z,88.50
2019-02-22T15:17:34.986Z,88.80
2019-02-22T15:20:04.486Z,88.50
2019-02-22T15:22:33.634Z,88.30
2019-02-22T15:25:02.955Z,88.40
2019-02-22T15:27:32.935Z,88.10
2019-02-22T15:30:02.158Z,88.10
2019-02-22T15:32:31.325Z,88.00
2019-02-22T15:35:00.427Z,88.40
2019-02-22T15:37:30.064Z,88.70
2019-02-22T15:39:59.211Z,89.00
2019-02-22T15:42:28.171Z,90.00
2019-02-22T15:44:57.283Z,90.00
2019-02-22T15:47:26.493Z,89.40
2019-02-22T15:49:55.624Z,90.00
2019-02-22T15:52:25.052Z,90.00
2019-02-22T15:54:54.148Z,90.00
2019-02-22T15:57:25.006Z,90.30
2019-02-22T15:59:53.870Z,90.20
2019-02-22T16:02:23.159Z,90.20
2019-02-22T16:05:03.092Z,90.30
2019-02-22T16:07:32.330Z,90.50
2019-02-22T16:10:01.755Z,90.60
2019-02-22T16:12:30.893Z,90.70
2019-02-22T16:15:00.329Z,90.80
2019-02-22T16:17:29.491Z,90.80
2019-02-22T16:19:58.881Z,90.80
2019-02-22T16:22:28.013Z,90.80
2019-02-22T16:24:57.302Z,90.70
2019-02-22T16:27:26.524Z,90.60
2019-02-22T16:29:56.445Z,90.40
2019-02-22T16:32:27.212Z,90.30
2019-02-22T16:34:56.693Z,90.10
2019-02-22T16:37:25.727Z,90.10
2019-02-22T16:39:54.871Z,90.00
2019-02-22T16:42:23.833Z,90.00
2019-02-22T16:44:52.795Z,90.10
2019-02-22T16:47:21.825Z,90.10
2019-02-22T16:49:50.870Z,90.40
2019-02-22T16:52:20.057Z,90.60
2019-02-22T16:54:49.166Z,90.80
2019-02-22T16:57:18.126Z,90.80
2019-02-22T16:59:47.288Z,90.80
2019-02-22T17:02:16.554Z,91.00
2019-02-22T17:04:46.049Z,91.10
2019-02-22T17:07:15.113Z,91.20
2019-02-22T17:09:44.393Z,91.30
2019-02-22T17:12:13.384Z,91.40
2019-02-22T17:14:42.664Z,91.50
2019-02-22T17:17:11.700Z,91.60
2019-02-22T17:19:40.769Z,91.70
2019-02-22T17:22:10.187Z,91.70
2019-02-22T17:24:39.669Z,91.90
2019-02-22T17:27:08.991Z,91.80
2019-02-22T17:29:38.738Z,92.00
2019-02-22T17:32:07.738Z,92.50
2019-02-22T17:34:37.028Z,92.90
2019-02-22T17:37:06.269Z,93.00
2019-02-22T17:39:35.646Z,93.30
2019-02-22T17:42:04.952Z,93.50
2019-02-22T17:44:34.266Z,93.60
2019-02-22T17:47:03.277Z,93.70
2019-02-22T17:49:32.733Z,94.00
2019-02-22T17:52:02.158Z,94.00
2019-02-22T17:54:31.574Z,94.00
2019-02-22T17:57:00.929Z,94.20
2019-02-22T17:59:30.327Z,94.30
2019-02-22T18:01:59.556Z,94.40
2019-02-22T18:04:28.803Z,94.40
2019-02-22T18:06:58.294Z,94.40
2019-02-22T18:09:33.929Z,94.50
2019-02-22T18:11:58.861Z,94.50
2019-02-22T18:14:27.984Z,94.60
2019-02-22T18:17:07.706Z,94.80
2019-02-22T18:19:28.168Z,95.00
2019-02-22T18:21:57.783Z,95.10
2019-02-22T18:24:27.731Z,95.30
2019-02-22T18:26:59.675Z,95.60
2019-02-22T18:29:35.498Z,95.90
2019-02-22T18:32:02.921Z,95.90
2019-02-22T18:34:32.704Z,96.00
2019-02-22T18:37:02.141Z,96.40
2019-02-22T18:39:31.626Z,96.60
2019-02-22T18:42:01.224Z,96.70
2019-02-22T18:44:30.990Z,96.80
2019-02-22T18:47:05.203Z,96.90
2019-02-22T18:49:35.126Z,97.10
2019-02-22T18:52:04.641Z,97.10
2019-02-22T18:54:34.068Z,97.30
2019-02-22T18:57:04.106Z,97.40
2019-02-22T18:59:34.153Z,97.60
2019-02-22T19:02:04.405Z,97.80
2019-02-22T19:04:34.739Z,98.00
2019-02-22T19:07:07.190Z,98.20
2019-02-22T19:09:36.883Z,98.30
2019-02-22T19:12:06.762Z,98.70
2019-02-22T19:14:36.545Z,98.80
2019-02-22T19:17:06.306Z,98.90
2019-02-22T19:19:35.634Z,99.10
2019-02-22T19:22:06.220Z,99.30
2019-02-22T19:24:36.085Z,99.30
2019-02-22T19:27:05.698Z,99.20
2019-02-22T19:29:37.193Z,99.20
2019-02-22T19:32:06.795Z,99.30
2019-02-22T19:34:39.193Z,99.50
2019-02-22T19:37:09.571Z,99.50
2019-02-22T19:39:39.886Z,99.60
2019-02-22T19:42:09.530Z,99.80
2019-02-22T19:44:39.461Z,99.90
2019-02-22T19:47:08.912Z,99.90
2019-02-22T19:49:46.341Z,99.90
2019-02-22T19:52:15.854Z,99.90
2019-02-22T19:54:45.842Z,99.90
2019-02-22T19:57:16.070Z,99.90
2019-02-22T19:59:52.084Z,99.90
2019-02-22T20:02:24.394Z,99.90
2019-02-22T20:04:54.296Z,99.90
2019-02-22T20:07:24.230Z,99.90
2019-02-22T20:09:54.089Z,99.90
2019-02-22T20:12:23.534Z,99.90
2019-02-22T20:14:58.546Z,99.90
2019-02-22T20:17:28.051Z,99.90
2019-02-22T20:19:58.052Z,99.90
2019-02-22T20:22:28.805Z,99.90
2019-02-22T20:24:58.427Z,99.90
2019-02-22T20:27:28.224Z,99.90
2019-02-22T20:29:58.216Z,99.90
2019-02-22T20:32:28.502Z,99.90
2019-02-22T20:34:59.060Z,99.90
2019-02-22T20:37:28.697Z,99.90
2019-02-22T20:39:58.156Z,99.90
2019-02-22T20:42:29.898Z,99.90
2019-02-22T20:45:03.017Z,99.90
2019-02-22T20:47:32.731Z,99.90
2019-02-22T20:50:07.733Z,99.90
2019-02-22T20:52:37.753Z,99.90
2019-02-22T20:55:08.585Z,99.90
2019-02-22T20:57:37.898Z,99.90
2019-02-22T21:00:12.539Z,99.90
2019-02-22T21:02:43.555Z,99.90
2019-02-22T21:05:13.661Z,99.90
2019-02-22T21:07:43.234Z,99.90
2019-02-22T21:10:14.606Z,99.90
2019-02-22T21:12:44.834Z,99.90
2019-02-22T21:15:14.363Z,99.90
2019-02-22T21:17:44.691Z,99.90
2019-02-22T21:20:14.385Z,99.90
2019-02-22T21:22:43.935Z,99.90
2019-02-22T21:25:15.176Z,99.90
2019-02-22T21:27:44.951Z,99.90
2019-02-22T21:30:15.589Z,99.90
2019-02-22T21:32:45.399Z,99.90
2019-02-22T21:35:15.084Z,99.90
2019-02-22T21:37:45.753Z,99.90
2019-02-22T21:40:14.994Z,99.90
2019-02-22T21:42:44.179Z,99.90
2019-02-22T21:45:13.453Z,99.90
2019-02-22T21:47:53.672Z,99.90
2019-02-22T21:50:13.941Z,99.90
2019-02-22T21:52:43.211Z,99.90
2019-02-22T21:55:15.415Z,99.90
2019-02-22T21:57:44.719Z,99.90
2019-02-22T22:00:15.998Z,99.90
2019-02-22T22:02:45.844Z,99.90
2019-02-22T22:05:15.314Z,99.90
2019-02-22T22:07:44.795Z,99.90
2019-02-22T22:10:13.923Z,99.90
2019-02-22T22:12:43.453Z,99.90
2019-02-22T22:15:13.076Z,99.90
2019-02-22T22:17:42.352Z,99.90
2019-02-22T22:20:12.069Z,99.90
2019-02-22T22:22:41.299Z,99.90
2019-02-22T22:25:11.005Z,99.90
2019-02-22T22:27:40.487Z,99.90
2019-02-22T22:30:10.636Z,99.90
2019-02-22T22:32:39.782Z,99.90
2019-02-22T22:35:09.958Z,99.90
2019-02-22T22:37:39.126Z,99.90
2019-02-22T22:40:09.175Z,99.90
2019-02-22T22:42:38.247Z,99.90
2019-02-22T22:45:07.880Z,99.90
2019-02-22T22:47:37.116Z,99.90
2019-02-22T22:50:07.910Z,99.90
2019-02-22T22:52:37.158Z,99.90
2019-02-22T22:55:06.371Z,99.90
2019-02-22T22:57:35.510Z,99.90
2019-02-22T23:00:09.451Z,99.90
2019-02-22T23:02:38.638Z,99.90
2019-02-22T23:05:08.237Z,99.90
2019-02-22T23:07:37.663Z,99.90
2019-02-22T23:10:07.721Z,99.90
2019-02-22T23:12:36.770Z,99.90
2019-02-22T23:15:06.832Z,99.90
2019-02-22T23:17:36.882Z,99.90
2019-02-22T23:20:07.056Z,99.90
2019-02-22T23:22:36.326Z,99.90
2019-02-22T23:25:05.602Z,99.90
2019-02-22T23:27:35.594Z,99.90
2019-02-22T23:30:05.320Z,99.90
2019-02-22T23:32:34.735Z,99.90
2019-02-22T23:35:04.233Z,99.90
2019-02-22T23:37:33.929Z,99.90
2019-02-22T23:40:03.336Z,99.90
2019-02-22T23:42:32.831Z,99.90
2019-02-22T23:45:02.366Z,99.90
2019-02-22T23:47:32.377Z,99.90
2019-02-22T23:50:01.454Z,99.90
2019-02-22T23:52:30.663Z,99.90
2019-02-22T23:54:59.841Z,99.90
2019-02-22T23:57:28.993Z,99.90
2019-02-22T23:59:58.841Z,99.90
